Terminal Aerodrome Forecast
Issued by NWS Bismarck, ND

Home | Current Version | Previous Version | Graphics & Text | Print | Product List | Glossary On
Versions: 1 2 3 4 5 6 7 8 9 10 11 12 13 14 15 16 17 18 19 20 21 22 23 24 25
000
FTUS43 KBIS 210545
TAFBIS
TAF
KBIS 210545Z 2106/2206 VRB04KT P6SM BKN080 OVC110
     FM210900 VRB04KT P6SM SCT110 BKN140
     FM211100 23007KT P6SM FEW300
     FM211700 25006KT P6SM SCT080 BKN100
     FM212200 19006KT P6SM SCT110
     FM220200 26011KT P6SM SCT150 WS020/27035KT=

USA.gov is the U.S. government's official web portal to all federal, state and local government web resources and services.